createdAt,value
2019-03-23T00:00:39.523Z,4.33
2019-03-23T00:02:13.893Z,4.29
2019-03-23T00:03:47.532Z,4.26
2019-03-23T00:05:21.760Z,4.22
2019-03-23T00:06:56.057Z,4.18
2019-03-23T00:08:29.735Z,4.18
2019-03-23T00:10:05.365Z,4.18
2019-03-23T00:11:39.068Z,4.17
2019-03-23T00:13:13.399Z,4.15
2019-03-23T00:14:47.123Z,4.12
2019-03-23T00:16:21.956Z,4.10
2019-03-23T00:17:55.646Z,4.04
2019-03-23T00:19:29.387Z,3.96
2019-03-23T00:21:03.050Z,3.88
2019-03-23T00:22:36.958Z,3.85
2019-03-23T00:24:10.676Z,3.82
2019-03-23T00:25:44.329Z,3.79
2019-03-23T00:27:18.023Z,3.78
2019-03-23T00:28:52.250Z,3.77
2019-03-23T00:30:25.904Z,3.77
2019-03-23T00:31:59.546Z,3.78
2019-03-23T00:33:33.230Z,3.80
2019-03-23T00:35:08.380Z,3.79
2019-03-23T00:36:42.097Z,3.79
2019-03-23T00:38:15.805Z,3.81
2019-03-23T00:39:51.550Z,3.81
2019-03-23T00:41:25.290Z,3.84
2019-03-23T00:42:59.608Z,3.87
2019-03-23T00:44:33.246Z,3.86
2019-03-23T00:46:07.529Z,3.89
2019-03-23T00:47:41.564Z,3.91
2019-03-23T00:49:15.199Z,3.90
2019-03-23T00:50:48.856Z,3.90
2019-03-23T00:52:22.562Z,3.90
2019-03-23T00:53:56.879Z,3.88
2019-03-23T00:55:31.185Z,3.83
2019-03-23T00:57:05.486Z,3.82
2019-03-23T00:58:39.185Z,3.81
2019-03-23T01:00:14.402Z,3.80
2019-03-23T01:01:48.064Z,3.71
2019-03-23T01:03:21.716Z,3.68
2019-03-23T01:04:55.417Z,3.63
2019-03-23T01:06:29.117Z,3.60
2019-03-23T01:08:02.819Z,3.52
2019-03-23T01:09:37.171Z,3.45
2019-03-23T01:11:10.955Z,3.43
2019-03-23T01:12:44.678Z,3.40
2019-03-23T01:14:18.391Z,3.38
2019-03-23T01:15:52.091Z,3.36
2019-03-23T01:17:26.689Z,3.29
2019-03-23T01:19:00.330Z,3.22
2019-03-23T01:20:34.348Z,3.17
2019-03-23T01:22:08.023Z,3.12
2019-03-23T01:23:41.655Z,3.11
2019-03-23T01:25:15.962Z,3.09
2019-03-23T01:26:49.678Z,3.06
2019-03-23T01:28:23.401Z,3.07
2019-03-23T01:29:57.637Z,3.11
2019-03-23T01:31:31.307Z,3.18
2019-03-23T01:33:05.544Z,3.24
2019-03-23T01:34:39.708Z,3.23
2019-03-23T01:36:15.431Z,3.20
2019-03-23T01:37:49.048Z,3.14
2019-03-23T01:39:23.418Z,3.13
2019-03-23T01:40:57.125Z,3.11
2019-03-23T01:42:31.473Z,3.12
2019-03-23T01:44:05.790Z,3.10
2019-03-23T01:45:39.509Z,3.11
2019-03-23T01:47:16.163Z,3.13
2019-03-23T01:48:50.474Z,3.15
2019-03-23T01:50:24.719Z,3.16
2019-03-23T01:51:59.012Z,3.18
2019-03-23T01:53:33.404Z,3.22
2019-03-23T01:55:11.319Z,3.23
2019-03-23T01:56:47.557Z,3.23
2019-03-23T01:58:21.013Z,3.20
2019-03-23T01:59:55.168Z,3.09
2019-03-23T02:01:28.903Z,3.00
2019-03-23T02:03:02.630Z,2.93
2019-03-23T02:04:36.350Z,2.86
2019-03-23T02:06:10.061Z,2.83
2019-03-23T02:07:45.291Z,2.78
2019-03-23T02:09:19.025Z,2.72
2019-03-23T02:10:52.735Z,2.70
2019-03-23T02:12:26.524Z,2.71
2019-03-23T02:14:04.126Z,2.71
2019-03-23T02:15:37.845Z,2.65
2019-03-23T02:17:12.969Z,2.64
2019-03-23T02:18:46.680Z,2.63
2019-03-23T02:20:21.577Z,2.64
2019-03-23T02:21:55.309Z,2.66
2019-03-23T02:23:28.969Z,2.68
2019-03-23T02:25:02.715Z,2.71
2019-03-23T02:26:36.407Z,2.72
2019-03-23T02:28:10.139Z,2.74
2019-03-23T02:29:43.858Z,2.76
2019-03-23T02:31:17.549Z,2.76
2019-03-23T02:32:51.267Z,2.76
2019-03-23T02:34:24.906Z,2.72
2019-03-23T02:35:58.674Z,2.63
2019-03-23T02:37:32.659Z,2.51
2019-03-23T02:39:07.034Z,2.48
2019-03-23T02:40:40.731Z,2.45
2019-03-23T02:42:14.477Z,2.44
2019-03-23T02:43:48.145Z,2.43
2019-03-23T02:45:21.851Z,2.46
2019-03-23T02:46:55.535Z,2.49
2019-03-23T02:48:29.183Z,2.52
2019-03-23T02:50:03.229Z,2.54
2019-03-23T02:51:39.698Z,2.57
2019-03-23T02:53:12.561Z,2.61
2019-03-23T02:54:46.257Z,2.62
2019-03-23T02:56:19.992Z,2.64
2019-03-23T02:57:53.650Z,2.64
2019-03-23T02:59:27.301Z,2.59
2019-03-23T03:01:01.076Z,2.54
2019-03-23T03:02:34.750Z,2.48
2019-03-23T03:04:08.398Z,2.44
2019-03-23T03:05:42.092Z,2.41
2019-03-23T03:07:15.922Z,2.39
2019-03-23T03:08:49.635Z,2.38
2019-03-23T03:10:40.417Z,2.38
2019-03-23T03:12:14.151Z,2.33
2019-03-23T03:13:47.811Z,2.31
2019-03-23T03:15:21.497Z,2.27
2019-03-23T03:16:55.214Z,2.20
2019-03-23T03:18:28.931Z,2.18
2019-03-23T03:20:05.556Z,2.15
2019-03-23T03:21:39.379Z,2.10
2019-03-23T03:23:13.029Z,2.09
2019-03-23T03:24:46.793Z,2.11
2019-03-23T03:26:20.416Z,2.13
2019-03-23T03:27:54.068Z,2.14
2019-03-23T03:29:27.727Z,2.15
2019-03-23T03:31:01.495Z,2.15
2019-03-23T03:32:35.214Z,2.17
2019-03-23T03:34:08.940Z,2.18
2019-03-23T03:35:42.627Z,2.18
2019-03-23T03:37:16.375Z,2.21
2019-03-23T03:38:50.342Z,2.21
2019-03-23T03:40:24.064Z,2.21
2019-03-23T03:41:57.836Z,2.21
2019-03-23T03:43:31.446Z,2.24
2019-03-23T03:45:07.169Z,2.25
2019-03-23T03:46:40.882Z,2.26
2019-03-23T03:48:14.627Z,2.27
2019-03-23T03:49:48.345Z,2.28
2019-03-23T03:51:22.083Z,2.28
2019-03-23T03:52:55.830Z,2.29
2019-03-23T03:54:29.565Z,2.26
2019-03-23T03:56:03.221Z,2.22
2019-03-23T03:57:36.889Z,2.19
2019-03-23T03:59:10.573Z,2.17
2019-03-23T04:00:44.290Z,2.14
2019-03-23T04:02:18.074Z,2.11
2019-03-23T04:03:51.801Z,2.07
2019-03-23T04:05:25.504Z,2.04
2019-03-23T04:06:59.220Z,2.03
2019-03-23T04:08:32.892Z,1.99
2019-03-23T04:10:08.597Z,1.93
2019-03-23T04:11:42.379Z,1.85
2019-03-23T04:13:16.091Z,1.81
2019-03-23T04:14:49.733Z,1.76
2019-03-23T04:16:23.378Z,1.73
2019-03-23T04:17:57.142Z,1.73
2019-03-23T04:19:30.764Z,1.72
2019-03-23T04:21:04.513Z,1.69
2019-03-23T04:22:38.246Z,1.66
2019-03-23T04:24:11.917Z,1.52
2019-03-23T04:25:45.677Z,1.60
2019-03-23T04:27:19.276Z,1.64
2019-03-23T04:28:52.914Z,1.66
2019-03-23T04:30:26.662Z,1.69
2019-03-23T04:32:00.427Z,1.69
2019-03-23T04:33:34.143Z,1.70
2019-03-23T04:35:08.954Z,1.71
2019-03-23T04:36:42.671Z,1.72
2019-03-23T04:38:22.482Z,1.75
2019-03-23T04:39:52.329Z,1.79
2019-03-23T04:41:26.068Z,1.82
2019-03-23T04:42:59.808Z,1.86
2019-03-23T04:44:34.111Z,1.89
2019-03-23T04:46:07.826Z,1.95
2019-03-23T04:47:41.470Z,2.02
2019-03-23T04:49:15.236Z,2.01
2019-03-23T04:50:48.872Z,2.03
2019-03-23T04:52:22.509Z,2.09
2019-03-23T04:53:56.220Z,2.13
2019-03-23T04:55:30.012Z,2.17
2019-03-23T04:57:03.834Z,2.23
2019-03-23T04:58:37.574Z,2.32
2019-03-23T05:00:14.244Z,2.36
2019-03-23T05:01:47.899Z,2.39
2019-03-23T05:03:21.651Z,2.41
2019-03-23T05:04:55.298Z,2.45
2019-03-23T05:06:28.966Z,2.55
2019-03-23T05:08:02.740Z,2.78
2019-03-23T05:09:36.480Z,3.15
2019-03-23T05:11:10.182Z,3.50
2019-03-23T05:12:43.887Z,3.91
2019-03-23T05:14:17.657Z,4.38
2019-03-23T05:15:51.417Z,4.75
2019-03-23T05:17:25.140Z,4.96
2019-03-23T05:18:58.783Z,5.30
2019-03-23T05:20:33.000Z,5.58
2019-03-23T05:22:07.989Z,5.79
2019-03-23T05:23:42.271Z,5.91
2019-03-23T05:25:25.147Z,6.23
2019-03-23T05:26:59.885Z,6.64
2019-03-23T05:28:34.224Z,6.96
2019-03-23T05:30:09.033Z,7.27
2019-03-23T05:31:43.331Z,7.39
2019-03-23T05:33:17.609Z,7.38
2019-03-23T05:34:51.325Z,7.55
2019-03-23T05:36:25.631Z,7.74
2019-03-23T05:37:59.860Z,8.04
2019-03-23T05:39:34.090Z,8.37
2019-03-23T05:41:08.705Z,8.64
2019-03-23T05:42:43.332Z,8.95
2019-03-23T05:44:17.673Z,9.29
2019-03-23T05:45:51.985Z,9.52
2019-03-23T05:47:26.274Z,9.71
2019-03-23T05:49:00.491Z,9.95
2019-03-23T05:50:34.809Z,10.20
2019-03-23T05:52:09.105Z,10.37
2019-03-23T05:53:43.435Z,10.67
2019-03-23T05:55:17.681Z,10.87
2019-03-23T05:56:52.007Z,11.08
2019-03-23T05:58:26.256Z,11.31
2019-03-23T06:00:00.527Z,11.49
2019-03-23T06:01:34.863Z,11.65
2019-03-23T06:03:09.136Z,11.60
2019-03-23T06:04:43.517Z,11.59
2019-03-23T06:06:17.838Z,11.74
2019-03-23T06:07:52.154Z,11.81
2019-03-23T06:09:26.393Z,11.79
2019-03-23T06:11:00.619Z,12.05
2019-03-23T06:12:34.859Z,12.35
2019-03-23T06:14:09.237Z,12.72
2019-03-23T06:15:43.548Z,12.99
2019-03-23T06:17:17.869Z,12.91
2019-03-23T06:18:52.106Z,12.74
2019-03-23T06:20:26.380Z,12.62
2019-03-23T06:22:00.727Z,12.91
2019-03-23T06:23:36.455Z,13.18
2019-03-23T06:25:11.194Z,12.86
2019-03-23T06:26:45.541Z,13.11
2019-03-23T06:28:20.139Z,13.04
2019-03-23T06:29:54.360Z,13.16
2019-03-23T06:31:28.728Z,13.48
2019-03-23T06:33:02.950Z,13.80
2019-03-23T06:34:37.182Z,14.07
2019-03-23T06:36:11.492Z,14.19
2019-03-23T06:37:45.787Z,14.07
2019-03-23T06:39:20.022Z,14.13
2019-03-23T06:40:54.350Z,14.22
2019-03-23T06:42:28.980Z,14.29
2019-03-23T06:44:03.257Z,14.76
2019-03-23T06:45:37.592Z,14.89
2019-03-23T06:47:11.893Z,14.74
2019-03-23T06:48:46.129Z,14.42
2019-03-23T06:50:20.397Z,14.40
2019-03-23T06:51:54.680Z,14.74
2019-03-23T06:53:28.982Z,15.06
2019-03-23T06:55:04.032Z,15.34
2019-03-23T06:56:38.335Z,15.85
2019-03-23T06:58:12.682Z,15.61
2019-03-23T06:59:47.012Z,15.79
2019-03-23T07:01:21.244Z,16.10
2019-03-23T07:02:55.570Z,16.11
2019-03-23T07:04:29.939Z,16.06
2019-03-23T07:06:04.352Z,16.04
2019-03-23T07:07:38.678Z,16.34
2019-03-23T07:09:16.356Z,16.79
2019-03-23T07:10:48.900Z,17.14
2019-03-23T07:12:23.248Z,17.46
2019-03-23T07:13:58.044Z,17.57
2019-03-23T07:15:32.418Z,17.86
2019-03-23T07:17:06.717Z,18.21
2019-03-23T07:18:41.043Z,18.50
2019-03-23T07:20:15.410Z,18.62
2019-03-23T07:21:49.683Z,18.35
2019-03-23T07:23:24.258Z,18.51
2019-03-23T07:24:58.532Z,18.70
2019-03-23T07:26:32.849Z,18.78
2019-03-23T07:28:08.055Z,19.03
2019-03-23T07:29:42.388Z,19.20
2019-03-23T07:31:16.742Z,19.22
2019-03-23T07:32:51.050Z,19.46
2019-03-23T07:34:26.767Z,19.60
2019-03-23T07:36:01.117Z,19.85
2019-03-23T07:37:35.431Z,19.88
2019-03-23T07:39:09.754Z,20.04
2019-03-23T07:40:43.995Z,20.24
2019-03-23T07:42:18.241Z,20.51
2019-03-23T07:43:52.854Z,20.71
2019-03-23T07:45:27.173Z,20.74
2019-03-23T07:47:02.439Z,20.72
2019-03-23T07:48:36.765Z,20.79
2019-03-23T07:50:12.992Z,20.87
2019-03-23T07:51:48.110Z,21.00
2019-03-23T07:53:24.374Z,20.84
2019-03-23T07:55:01.564Z,20.98
2019-03-23T07:56:35.808Z,20.97
2019-03-23T07:58:10.146Z,21.12
2019-03-23T07:59:44.482Z,21.09
2019-03-23T08:01:19.298Z,21.04
2019-03-23T08:02:53.520Z,21.50
2019-03-23T08:04:27.766Z,21.73
2019-03-23T08:06:02.040Z,21.49
2019-03-23T08:07:36.356Z,21.59
2019-03-23T08:09:20.081Z,21.65
2019-03-23T08:10:46.599Z,21.69
2019-03-23T08:12:20.957Z,22.07
2019-03-23T08:13:55.330Z,22.27
2019-03-23T08:15:29.624Z,22.55
2019-03-23T08:17:04.081Z,22.82
2019-03-23T08:18:38.391Z,23.23
2019-03-23T08:20:12.733Z,23.57
2019-03-23T08:21:46.955Z,23.58
2019-03-23T08:23:21.286Z,23.25
2019-03-23T08:24:55.617Z,22.98
2019-03-23T08:26:29.860Z,22.34
2019-03-23T08:28:04.204Z,22.53
2019-03-23T08:29:38.444Z,23.06
2019-03-23T08:31:12.868Z,23.46
2019-03-23T08:32:47.219Z,23.76
2019-03-23T08:34:21.434Z,23.93
2019-03-23T08:35:55.671Z,23.79
2019-03-23T08:37:29.913Z,23.78
2019-03-23T08:39:05.677Z,23.48
2019-03-23T08:40:39.992Z,23.16
2019-03-23T08:42:14.298Z,22.89
2019-03-23T08:43:48.669Z,23.29
2019-03-23T08:45:23.109Z,23.71
2019-03-23T08:46:57.443Z,24.20
2019-03-23T08:48:31.700Z,24.63
2019-03-23T08:50:07.521Z,24.69
2019-03-23T08:51:41.877Z,24.99
2019-03-23T08:53:16.112Z,25.17
2019-03-23T08:54:50.396Z,25.44
2019-03-23T08:56:24.790Z,25.63
2019-03-23T08:57:59.397Z,25.65
2019-03-23T08:59:33.702Z,25.62
2019-03-23T09:01:08.030Z,25.60
2019-03-23T09:02:42.483Z,25.76
2019-03-23T09:04:16.752Z,26.01
2019-03-23T09:05:51.187Z,26.05
2019-03-23T09:07:25.563Z,26.14
2019-03-23T09:08:59.869Z,26.32
2019-03-23T09:10:34.213Z,26.36
2019-03-23T09:12:08.591Z,26.19
2019-03-23T09:13:42.936Z,26.22
2019-03-23T09:15:17.290Z,25.78
2019-03-23T09:16:51.625Z,25.97
2019-03-23T09:18:26.382Z,26.35
2019-03-23T09:20:00.623Z,26.69
2019-03-23T09:21:34.856Z,26.90
2019-03-23T09:23:09.124Z,27.01
2019-03-23T09:24:43.421Z,26.77
2019-03-23T09:26:17.668Z,26.50
2019-03-23T09:27:51.978Z,25.97
2019-03-23T09:29:26.289Z,26.06
2019-03-23T09:31:00.945Z,25.59
2019-03-23T09:32:35.274Z,25.03
2019-03-23T09:34:09.599Z,24.80
2019-03-23T09:35:43.901Z,25.14
2019-03-23T09:37:18.247Z,25.42
2019-03-23T09:38:52.503Z,25.54
2019-03-23T09:40:26.740Z,25.83
2019-03-23T09:42:01.004Z,26.15
2019-03-23T09:43:35.392Z,26.18
2019-03-23T09:45:10.034Z,26.37
2019-03-23T09:46:44.656Z,26.65
2019-03-23T09:48:18.965Z,26.64
2019-03-23T09:49:53.340Z,26.65
2019-03-23T09:51:29.346Z,26.74
2019-03-23T09:53:03.974Z,26.69
2019-03-23T09:54:38.215Z,26.98
2019-03-23T09:56:12.949Z,26.95
2019-03-23T09:57:47.276Z,27.17
2019-03-23T09:59:21.564Z,27.29
2019-03-23T10:00:55.918Z,26.90
2019-03-23T10:02:30.203Z,26.18
2019-03-23T10:04:04.941Z,25.63
2019-03-23T10:05:39.249Z,25.50
2019-03-23T10:07:13.592Z,25.47
2019-03-23T10:08:47.960Z,25.46
2019-03-23T10:10:22.356Z,25.40
2019-03-23T10:11:58.310Z,25.38
2019-03-23T10:13:32.589Z,25.17
2019-03-23T10:15:08.709Z,25.01
2019-03-23T10:16:44.121Z,24.88
2019-03-23T10:18:18.362Z,24.88
2019-03-23T10:19:52.979Z,24.90
2019-03-23T10:21:29.136Z,24.64
2019-03-23T10:23:03.463Z,24.47
2019-03-23T10:24:38.111Z,24.27
2019-03-23T10:26:15.423Z,24.04
2019-03-23T10:27:51.138Z,24.01
2019-03-23T10:31:21.430Z,23.57
2019-03-23T10:32:57.948Z,23.36
2019-03-23T10:34:33.727Z,23.36
2019-03-23T10:36:12.216Z,23.24
2019-03-23T10:37:46.852Z,23.60
2019-03-23T10:39:21.157Z,23.80
2019-03-23T10:40:55.539Z,23.42
2019-03-23T10:42:29.889Z,22.67
2019-03-23T10:44:04.242Z,23.21
2019-03-23T10:45:44.180Z,23.30
2019-03-23T10:47:15.178Z,23.25
2019-03-23T10:48:49.482Z,23.10
2019-03-23T10:50:23.876Z,23.08
2019-03-23T10:51:58.209Z,23.07
2019-03-23T10:53:32.593Z,23.29
2019-03-23T10:55:08.141Z,23.38
2019-03-23T10:56:42.484Z,23.11
2019-03-23T10:58:18.397Z,22.66
2019-03-23T10:59:52.640Z,22.41
2019-03-23T11:01:26.968Z,22.34
2019-03-23T11:03:01.360Z,22.43
2019-03-23T11:04:35.702Z,22.36
2019-03-23T11:06:10.144Z,22.03
2019-03-23T11:07:44.789Z,21.79
2019-03-23T11:09:19.197Z,21.66
2019-03-23T11:10:53.488Z,21.66
2019-03-23T11:12:27.801Z,21.77
2019-03-23T11:14:02.051Z,21.68
2019-03-23T11:15:36.324Z,21.76
2019-03-23T11:17:10.573Z,21.60
2019-03-23T11:18:45.200Z,21.37
2019-03-23T11:20:19.559Z,21.20
2019-03-23T11:21:53.870Z,21.11
2019-03-23T11:23:28.122Z,21.06
2019-03-23T11:25:02.445Z,21.04
2019-03-23T11:26:36.756Z,21.13
2019-03-23T11:28:11.020Z,21.25
2019-03-23T11:29:45.759Z,21.22
2019-03-23T11:31:20.084Z,21.24
2019-03-23T11:32:54.407Z,21.16
2019-03-23T11:34:28.740Z,21.26
2019-03-23T11:36:03.080Z,21.30
2019-03-23T11:37:38.007Z,21.29
2019-03-23T11:39:12.903Z,21.39
2019-03-23T11:40:53.845Z,21.40
2019-03-23T11:42:23.131Z,21.34
2019-03-23T11:43:57.484Z,21.21
2019-03-23T11:45:35.433Z,21.42
2019-03-23T11:47:12.023Z,21.59
2019-03-23T11:48:46.607Z,21.61
2019-03-23T11:50:22.470Z,21.52
2019-03-23T11:51:56.709Z,21.40
2019-03-23T11:53:31.020Z,21.36
2019-03-23T11:55:07.361Z,21.41
2019-03-23T11:56:41.607Z,21.50
2019-03-23T11:58:16.050Z,21.49
2019-03-23T11:59:50.398Z,21.32
2019-03-23T12:01:24.641Z,21.15
2019-03-23T12:02:58.943Z,21.10
2019-03-23T12:04:33.246Z,21.15
2019-03-23T12:06:07.521Z,21.03
2019-03-23T12:07:41.877Z,20.90
2019-03-23T12:09:16.212Z,21.00
2019-03-23T12:10:50.482Z,21.02
2019-03-23T12:12:24.797Z,21.04
2019-03-23T12:14:00.748Z,21.10
2019-03-23T12:15:35.075Z,21.05
2019-03-23T12:17:09.333Z,21.02
2019-03-23T12:18:43.600Z,20.88
2019-03-23T12:20:17.942Z,20.87
2019-03-23T12:21:52.199Z,21.01
2019-03-23T12:23:26.563Z,21.04
2019-03-23T12:25:00.871Z,21.04
2019-03-23T12:26:35.299Z,21.04
2019-03-23T12:28:09.517Z,21.08
2019-03-23T12:29:43.775Z,21.19
2019-03-23T12:31:18.076Z,21.23
2019-03-23T12:32:52.440Z,21.22
2019-03-23T12:34:26.747Z,20.94
2019-03-23T12:36:00.975Z,20.91
2019-03-23T12:37:35.270Z,20.89
2019-03-23T12:39:09.637Z,20.69
2019-03-23T12:40:43.882Z,20.60
2019-03-23T12:42:18.499Z,20.60
2019-03-23T12:43:52.758Z,20.57
2019-03-23T12:45:27.138Z,20.49
2019-03-23T12:47:02.449Z,20.50
2019-03-23T12:48:36.715Z,20.57
2019-03-23T12:50:12.518Z,20.58
2019-03-23T12:51:46.821Z,20.55
2019-03-23T12:53:21.207Z,20.58
2019-03-23T12:54:55.795Z,20.64
2019-03-23T12:56:30.107Z,20.60
2019-03-23T12:58:04.326Z,20.65
2019-03-23T12:59:38.613Z,20.63
2019-03-23T13:01:12.903Z,20.62
2019-03-23T13:02:47.205Z,20.53
2019-03-23T13:04:21.648Z,20.49
2019-03-23T13:05:55.953Z,20.48
2019-03-23T13:07:31.872Z,20.53
2019-03-23T13:09:07.694Z,20.55
2019-03-23T13:10:43.447Z,20.52
2019-03-23T13:12:17.763Z,20.48
2019-03-23T13:13:52.109Z,20.52
2019-03-23T13:15:26.444Z,20.55
2019-03-23T13:17:02.733Z,20.53
2019-03-23T13:18:36.804Z,20.50
2019-03-23T13:20:12.518Z,20.55
2019-03-23T13:21:47.072Z,20.53
2019-03-23T13:23:22.899Z,20.45
2019-03-23T13:24:57.118Z,20.51
2019-03-23T13:26:31.378Z,20.48
2019-03-23T13:28:05.679Z,20.50
2019-03-23T13:29:40.450Z,20.43
2019-03-23T13:31:14.784Z,20.42
2019-03-23T13:32:49.547Z,20.40
2019-03-23T13:34:23.808Z,20.39
2019-03-23T13:35:58.193Z,20.32
2019-03-23T13:37:32.481Z,20.35
2019-03-23T13:39:06.883Z,20.41
2019-03-23T13:40:41.180Z,20.48
2019-03-23T13:42:15.557Z,20.49
2019-03-23T13:43:49.842Z,20.50
2019-03-23T13:45:24.685Z,20.46
2019-03-23T13:46:58.980Z,20.44
2019-03-23T13:48:33.255Z,20.25
2019-03-23T13:50:09.509Z,20.26
2019-03-23T13:51:44.270Z,20.28
2019-03-23T13:53:18.531Z,20.30
2019-03-23T13:54:52.780Z,20.32
2019-03-23T13:56:27.084Z,20.38
2019-03-23T13:58:09.522Z,20.37
2019-03-23T13:59:43.843Z,20.31
2019-03-23T14:01:18.421Z,20.29
2019-03-23T14:02:52.706Z,20.23
2019-03-23T14:04:27.014Z,20.25
2019-03-23T14:06:01.297Z,20.32
2019-03-23T14:07:35.533Z,20.34
2019-03-23T14:09:09.863Z,20.39
2019-03-23T14:10:44.218Z,20.42
2019-03-23T14:12:18.438Z,20.43
2019-03-23T14:13:52.816Z,20.52
2019-03-23T14:15:27.148Z,20.61
2019-03-23T14:17:01.446Z,20.62
2019-03-23T14:18:35.931Z,20.61
2019-03-23T14:20:10.276Z,20.62
2019-03-23T14:21:44.559Z,20.44
2019-03-23T14:23:18.830Z,20.35
2019-03-23T14:24:53.159Z,20.28
2019-03-23T14:26:27.506Z,20.26
2019-03-23T14:28:01.747Z,20.23
2019-03-23T14:29:35.952Z,20.26
2019-03-23T14:31:10.799Z,20.33
2019-03-23T14:32:45.123Z,20.36
2019-03-23T14:34:19.436Z,20.32
2019-03-23T14:35:53.743Z,20.26
2019-03-23T14:37:28.110Z,20.24
2019-03-23T14:39:02.456Z,20.16
2019-03-23T14:40:36.757Z,20.05
2019-03-23T14:42:10.992Z,19.99
2019-03-23T14:43:45.859Z,19.95
2019-03-23T14:45:20.109Z,19.97
2019-03-23T14:46:54.766Z,19.87
2019-03-23T14:48:29.006Z,19.88
2019-03-23T14:50:03.398Z,19.90
2019-03-23T14:51:37.661Z,19.91
2019-03-23T14:53:12.109Z,19.90
2019-03-23T14:54:46.439Z,19.95
2019-03-23T14:56:20.745Z,19.99
2019-03-23T14:57:55.087Z,19.87
2019-03-23T14:59:29.393Z,19.86
2019-03-23T15:01:04.233Z,19.84
2019-03-23T15:02:38.757Z,19.81
2019-03-23T15:04:13.071Z,19.77
2019-03-23T15:05:48.153Z,19.73
2019-03-23T15:07:22.383Z,19.72
2019-03-23T15:08:56.706Z,19.75
2019-03-23T15:10:30.968Z,19.73
2019-03-23T15:12:14.499Z,19.70
2019-03-23T15:13:41.481Z,19.62
2019-03-23T15:15:15.797Z,19.54
2019-03-23T15:16:50.164Z,19.45
2019-03-23T15:18:25.061Z,19.44
2019-03-23T15:19:59.266Z,19.39
2019-03-23T15:21:33.585Z,19.40
2019-03-23T15:23:07.810Z,19.37
2019-03-23T15:24:42.114Z,19.37
2019-03-23T15:26:16.377Z,19.36
2019-03-23T15:27:50.663Z,19.26
2019-03-23T15:29:24.995Z,19.22
2019-03-23T15:30:59.244Z,19.25
2019-03-23T15:32:33.560Z,19.25
2019-03-23T15:34:08.197Z,19.24
2019-03-23T15:35:42.536Z,19.24
2019-03-23T15:37:17.576Z,19.22
2019-03-23T15:38:51.804Z,19.18
2019-03-23T15:40:26.180Z,19.06
2019-03-23T15:42:00.522Z,19.04
2019-03-23T15:43:34.746Z,19.03
2019-03-23T15:45:11.536Z,19.00
2019-03-23T15:46:45.883Z,18.93
2019-03-23T15:48:20.115Z,18.87
2019-03-23T15:49:54.359Z,18.83
2019-03-23T15:51:28.699Z,18.77
2019-03-23T15:53:03.079Z,18.72
2019-03-23T15:54:37.828Z,18.66
2019-03-23T15:56:12.124Z,18.62
2019-03-23T15:57:46.497Z,18.58
2019-03-23T15:59:20.837Z,18.50
2019-03-23T16:00:55.198Z,18.42
2019-03-23T16:02:29.909Z,18.39
2019-03-23T16:04:04.229Z,18.30
2019-03-23T16:05:38.458Z,18.25
2019-03-23T16:07:12.748Z,18.17
2019-03-23T16:08:46.976Z,18.12
2019-03-23T16:10:21.216Z,18.05
2019-03-23T16:11:55.525Z,17.99
2019-03-23T16:13:29.967Z,17.92
2019-03-23T16:15:11.870Z,17.87
2019-03-23T16:16:46.165Z,17.82
2019-03-23T16:18:20.463Z,17.76
2019-03-23T16:19:55.259Z,17.70
2019-03-23T16:21:29.495Z,17.67
2019-03-23T16:23:03.802Z,17.60
2019-03-23T16:24:38.036Z,17.54
2019-03-23T16:26:12.257Z,17.47
2019-03-23T16:27:47.963Z,17.41
2019-03-23T16:29:22.199Z,17.32
2019-03-23T16:30:56.563Z,17.24
2019-03-23T16:32:30.910Z,17.19
2019-03-23T16:34:05.209Z,17.11
2019-03-23T16:35:39.515Z,17.06
2019-03-23T16:37:13.798Z,16.98
2019-03-23T16:38:48.167Z,16.96
2019-03-23T16:40:22.469Z,16.91
2019-03-23T16:41:56.764Z,16.85
2019-03-23T16:43:31.175Z,16.81
2019-03-23T16:45:08.517Z,16.78
2019-03-23T16:46:42.821Z,16.70
2019-03-23T16:48:17.108Z,16.67
2019-03-23T16:49:53.034Z,16.66
2019-03-23T16:51:29.822Z,16.64
2019-03-23T16:53:04.122Z,16.63
2019-03-23T16:54:38.730Z,16.59
2019-03-23T16:56:13.065Z,16.50
2019-03-23T16:57:47.436Z,16.45
2019-03-23T16:59:21.729Z,16.37
2019-03-23T17:00:55.944Z,16.35
2019-03-23T17:02:30.185Z,16.28
2019-03-23T17:04:04.430Z,16.22
2019-03-23T17:05:38.637Z,16.16
2019-03-23T17:07:13.298Z,16.15
2019-03-23T17:08:47.586Z,16.10
2019-03-23T17:10:21.933Z,16.02
2019-03-23T17:11:56.228Z,15.95
2019-03-23T17:13:30.528Z,15.90
2019-03-23T17:15:06.836Z,15.83
2019-03-23T17:16:41.220Z,15.77
2019-03-23T17:18:15.533Z,15.70
2019-03-23T17:19:49.817Z,15.63
2019-03-23T17:21:24.064Z,15.59
2019-03-23T17:22:58.732Z,15.53
2019-03-23T17:24:33.055Z,15.51
2019-03-23T17:26:07.344Z,15.47
2019-03-23T17:27:41.578Z,15.44
2019-03-23T17:29:15.866Z,15.43
2019-03-23T17:30:50.142Z,15.40
2019-03-23T17:32:24.466Z,15.36
2019-03-23T17:33:58.809Z,15.33
2019-03-23T17:35:33.154Z,15.29
2019-03-23T17:37:07.437Z,15.20
2019-03-23T17:38:42.377Z,15.05
2019-03-23T17:40:16.655Z,14.95
2019-03-23T17:41:52.882Z,14.87
2019-03-23T17:43:27.135Z,14.78
2019-03-23T17:45:01.799Z,14.72
2019-03-23T17:46:36.197Z,14.65
2019-03-23T17:48:10.525Z,14.59
2019-03-23T17:49:44.837Z,14.52
2019-03-23T17:51:19.172Z,14.46
2019-03-23T17:52:53.470Z,14.42
2019-03-23T17:54:29.344Z,14.37
2019-03-23T17:56:06.247Z,14.34
2019-03-23T17:57:39.874Z,14.32
2019-03-23T17:59:14.122Z,14.34
2019-03-23T18:00:48.419Z,14.39
2019-03-23T18:02:23.054Z,14.41
2019-03-23T18:03:57.312Z,14.38
2019-03-23T18:05:31.636Z,14.31
2019-03-23T18:07:05.974Z,14.24
2019-03-23T18:08:43.083Z,14.17
2019-03-23T18:10:17.440Z,14.12
2019-03-23T18:11:51.711Z,14.08
2019-03-23T18:13:26.005Z,14.04
2019-03-23T18:15:00.324Z,13.99
2019-03-23T18:16:34.683Z,13.95
2019-03-23T18:18:09.002Z,13.92
2019-03-23T18:19:43.328Z,13.94
2019-03-23T18:21:17.571Z,13.99
2019-03-23T18:22:51.870Z,14.04
2019-03-23T18:24:26.233Z,14.03
2019-03-23T18:26:00.589Z,13.98
2019-03-23T18:27:34.903Z,13.92
2019-03-23T18:29:09.583Z,13.85
2019-03-23T18:30:44.912Z,13.80
2019-03-23T18:32:19.193Z,13.73
2019-03-23T18:33:53.424Z,13.67
2019-03-23T18:35:28.307Z,13.63
2019-03-23T18:37:02.635Z,13.57
2019-03-23T18:38:37.003Z,13.50
2019-03-23T18:40:11.317Z,13.46
2019-03-23T18:41:45.623Z,13.42
2019-03-23T18:43:27.333Z,13.41
2019-03-23T18:44:55.898Z,13.35
2019-03-23T18:46:30.210Z,13.33
2019-03-23T18:48:04.931Z,13.27
2019-03-23T18:49:39.302Z,13.24
2019-03-23T18:51:13.557Z,13.21
2019-03-23T18:52:47.846Z,13.18
2019-03-23T18:54:22.185Z,13.16
2019-03-23T18:55:56.439Z,13.16
2019-03-23T18:57:31.161Z,13.14
2019-03-23T18:59:05.527Z,13.10
2019-03-23T19:00:41.665Z,13.04
2019-03-23T19:02:15.965Z,12.96
2019-03-23T19:03:50.254Z,12.91
2019-03-23T19:05:24.561Z,12.86
2019-03-23T19:06:58.820Z,12.83
2019-03-23T19:08:33.139Z,12.76
2019-03-23T19:10:07.560Z,12.71
2019-03-23T19:11:41.848Z,12.64
2019-03-23T19:13:16.143Z,12.56
2019-03-23T19:14:50.504Z,12.49
2019-03-23T19:16:24.810Z,12.38
2019-03-23T19:17:59.111Z,12.25
2019-03-23T19:19:33.438Z,12.14
2019-03-23T19:21:07.714Z,12.07
2019-03-23T19:22:42.000Z,12.00
2019-03-23T19:24:16.320Z,11.95
2019-03-23T19:25:50.587Z,11.92
2019-03-23T19:27:24.917Z,11.87
2019-03-23T19:28:59.273Z,11.83
2019-03-23T19:30:33.514Z,11.78
2019-03-23T19:32:07.828Z,11.71
2019-03-23T19:33:42.139Z,11.65
2019-03-23T19:35:16.459Z,11.60
2019-03-23T19:36:50.779Z,11.56
2019-03-23T19:38:25.095Z,11.53
2019-03-23T19:39:59.373Z,11.52
2019-03-23T19:41:33.927Z,11.50
2019-03-23T19:43:08.223Z,11.47
2019-03-23T19:44:42.458Z,11.47
2019-03-23T19:46:16.845Z,11.46
2019-03-23T19:47:51.057Z,10.97
2019-03-23T19:49:25.405Z,11.44
2019-03-23T19:50:59.711Z,11.39
2019-03-23T19:52:33.935Z,11.39
2019-03-23T19:54:08.250Z,11.33
2019-03-23T19:55:42.742Z,11.30
2019-03-23T19:57:17.371Z,11.26
2019-03-23T19:58:51.856Z,11.18
2019-03-23T20:00:26.079Z,11.12
2019-03-23T20:02:00.448Z,11.08
2019-03-23T20:03:34.765Z,11.03
2019-03-23T20:05:09.357Z,11.01
2019-03-23T20:06:43.687Z,11.01
2019-03-23T20:08:17.979Z,10.97
2019-03-23T20:09:52.194Z,10.95
2019-03-23T20:11:26.485Z,10.94
2019-03-23T20:13:00.853Z,10.96
2019-03-23T20:14:35.190Z,11.02
2019-03-23T20:16:09.512Z,11.07
2019-03-23T20:17:43.744Z,11.11
2019-03-23T20:19:18.005Z,11.13
2019-03-23T20:20:52.351Z,11.12
2019-03-23T20:22:26.654Z,11.11
2019-03-23T20:24:00.963Z,11.10
2019-03-23T20:25:35.310Z,11.10
2019-03-23T20:27:09.539Z,11.10
2019-03-23T20:28:45.363Z,11.11